createdAt,value
2023-01-25T00:01:52.634Z,31.08
2023-01-25T00:06:45.056Z,30.45
2023-01-25T00:09:11.610Z,32.00
2023-01-25T00:11:37.905Z,25.60
2023-01-25T00:14:04.389Z,29.98
2023-01-25T00:16:30.773Z,27.40
2023-01-25T00:18:57.055Z,31.17
2023-01-25T00:21:26.172Z,31.95
2023-01-25T00:23:52.514Z,30.05
2023-01-25T00:26:19.039Z,30.02
2023-01-25T00:28:52.056Z,29.70
2023-01-25T00:31:25.820Z,28.02
2023-01-25T00:34:01.776Z,34.42
2023-01-25T00:36:40.215Z,33.78
2023-01-25T00:39:06.928Z,28.67
2023-01-25T00:41:33.172Z,31.00
2023-01-25T00:44:00.069Z,29.00
2023-01-25T00:48:55.520Z,33.50
2023-01-25T00:51:22.301Z,31.95
2023-01-25T00:56:14.730Z,31.38
2023-01-25T00:58:41.267Z,29.85
2023-01-25T01:01:07.663Z,30.23
2023-01-25T01:03:33.973Z,29.85
2023-01-25T01:06:05.033Z,30.42
2023-01-25T01:08:33.432Z,30.35
2023-01-25T01:11:00.886Z,32.00
2023-01-25T01:13:28.217Z,32.17
2023-01-25T01:15:54.738Z,29.73
2023-01-25T01:18:21.076Z,31.95
2023-01-25T01:20:50.910Z,34.85
2023-01-25T01:23:17.145Z,33.95
2023-01-25T01:25:43.427Z,30.30
2023-01-25T01:28:09.675Z,33.83
2023-01-25T01:30:36.137Z,32.75
2023-01-25T01:33:02.353Z,31.52
2023-01-25T01:35:29.093Z,33.50
2023-01-25T01:37:55.388Z,33.10
2023-01-25T01:40:21.967Z,31.98
2023-01-25T01:43:05.386Z,33.97
2023-01-25T01:45:43.893Z,34.17
2023-01-25T01:48:15.605Z,31.02
2023-01-25T01:50:42.371Z,32.40
2023-01-25T01:55:35.563Z,34.22
2023-01-25T01:58:03.401Z,32.10
2023-01-25T02:00:32.530Z,31.88
2023-01-25T02:02:58.925Z,30.42
2023-01-25T02:05:42.262Z,37.65
2023-01-25T02:08:10.489Z,33.40
2023-01-25T02:10:36.800Z,39.67
2023-01-25T02:13:03.030Z,33.45
2023-01-25T02:15:33.322Z,32.25
2023-01-25T02:17:59.550Z,33.42
2023-01-25T02:20:35.433Z,31.13
2023-01-25T02:23:01.640Z,31.67
2023-01-25T02:25:28.933Z,35.03
2023-01-25T02:27:57.426Z,36.92
2023-01-25T02:30:23.682Z,37.38
2023-01-25T02:32:49.954Z,32.67
2023-01-25T02:35:23.309Z,33.65
2023-01-25T02:37:50.235Z,34.40
2023-01-25T02:40:19.623Z,32.25
2023-01-25T02:42:46.448Z,34.97
2023-01-25T02:47:39.036Z,34.00
2023-01-25T02:50:05.562Z,34.10
2023-01-25T02:52:31.849Z,35.40
2023-01-25T02:54:58.076Z,36.30
2023-01-25T02:57:24.373Z,36.88
2023-01-25T02:59:50.580Z,34.88
2023-01-25T03:02:16.839Z,35.28
2023-01-25T03:04:43.087Z,33.67
2023-01-25T03:07:09.375Z,34.80
2023-01-25T03:09:35.590Z,33.22
2023-01-25T03:12:01.807Z,34.47
2023-01-25T03:14:28.036Z,33.10
2023-01-25T03:16:54.288Z,35.38
2023-01-25T03:19:20.563Z,36.85
2023-01-25T03:21:46.863Z,34.63
2023-01-25T03:24:13.155Z,32.83
2023-01-25T03:26:58.211Z,31.70
2023-01-25T03:29:24.461Z,33.17
2023-01-25T03:31:51.006Z,36.08
2023-01-25T03:34:17.371Z,37.65
2023-01-25T03:36:43.634Z,29.63
2023-01-25T03:39:10.120Z,31.38
2023-01-25T03:41:36.506Z,31.83
2023-01-25T03:44:02.728Z,29.65
2023-01-25T03:46:28.962Z,30.67
2023-01-25T03:48:55.219Z,34.55
2023-01-25T03:51:21.494Z,32.28
2023-01-25T03:53:47.730Z,32.72
2023-01-25T03:56:20.175Z,36.63
2023-01-25T03:58:46.730Z,31.65
2023-01-25T04:01:13.430Z,31.63
2023-01-25T04:03:39.779Z,32.35
2023-01-25T04:06:06.422Z,36.90
2023-01-25T04:08:32.777Z,35.25
2023-01-25T04:11:04.062Z,31.23
2023-01-25T04:13:30.465Z,31.15
2023-01-25T04:15:56.750Z,31.40
2023-01-25T04:18:22.993Z,32.42
2023-01-25T04:20:53.658Z,29.95
2023-01-25T04:23:19.883Z,35.90
2023-01-25T04:25:54.987Z,30.75
2023-01-25T04:28:21.237Z,32.03
2023-01-25T04:30:47.496Z,28.42
2023-01-25T04:33:13.947Z,32.45
2023-01-25T04:35:40.396Z,29.83
2023-01-25T04:38:06.783Z,32.03
2023-01-25T04:40:33.072Z,30.85
2023-01-25T04:42:59.384Z,31.05
2023-01-25T04:45:25.687Z,31.00
2023-01-25T04:47:58.725Z,29.80
2023-01-25T04:50:25.393Z,32.10
2023-01-25T04:52:51.977Z,29.08
2023-01-25T04:55:18.221Z,33.47
2023-01-25T04:57:45.259Z,27.20
2023-01-25T05:00:12.072Z,26.77
2023-01-25T05:05:06.232Z,28.55
2023-01-25T05:07:32.541Z,25.25
2023-01-25T05:09:59.521Z,25.92
2023-01-25T05:12:25.751Z,24.67
2023-01-25T05:14:52.090Z,18.80
2023-01-25T05:17:18.358Z,22.13
2023-01-25T05:19:44.580Z,20.63
2023-01-25T05:22:13.421Z,23.08
2023-01-25T05:24:41.653Z,19.92
2023-01-25T05:27:09.468Z,21.02
2023-01-25T05:29:37.030Z,22.48
2023-01-25T05:32:08.017Z,22.83
2023-01-25T05:34:34.820Z,22.88
2023-01-25T05:39:27.301Z,25.90
2023-01-25T05:41:53.529Z,19.30
2023-01-25T05:44:19.962Z,21.67
2023-01-25T05:46:46.484Z,23.10
2023-01-25T05:49:12.831Z,20.67
2023-01-25T05:51:39.472Z,21.40
2023-01-25T05:54:06.024Z,23.33
2023-01-25T05:56:32.899Z,24.55
2023-01-25T06:01:25.455Z,20.80
2023-01-25T06:03:52.048Z,20.58
2023-01-25T06:06:18.490Z,26.67
2023-01-25T06:08:44.867Z,24.92
2023-01-25T06:11:13.624Z,21.52
2023-01-25T06:13:39.865Z,20.20
2023-01-25T06:16:06.368Z,21.08
2023-01-25T06:18:33.577Z,21.13
2023-01-25T06:21:00.351Z,19.58
2023-01-25T06:25:56.420Z,21.13
2023-01-25T06:28:22.655Z,21.33
2023-01-25T06:30:48.926Z,27.30
2023-01-25T06:33:15.240Z,25.35
2023-01-25T06:35:42.641Z,18.70
2023-01-25T06:38:09.118Z,22.67
2023-01-25T06:40:35.391Z,21.02
2023-01-25T06:43:08.200Z,23.98
2023-01-25T06:45:34.536Z,22.20
2023-01-25T06:48:00.826Z,22.80
2023-01-25T06:50:27.208Z,23.55
2023-01-25T06:52:54.086Z,25.30
2023-01-25T06:57:46.616Z,23.17
2023-01-25T07:00:13.217Z,25.33
2023-01-25T07:02:39.482Z,25.90
2023-01-25T07:05:06.016Z,31.75
2023-01-25T07:07:32.253Z,22.40
2023-01-25T07:10:00.431Z,28.33
2023-01-25T07:12:28.057Z,39.42
2023-01-25T07:14:54.300Z,26.70
2023-01-25T07:17:20.661Z,24.13
2023-01-25T07:19:47.170Z,23.17
2023-01-25T07:22:13.394Z,28.75
2023-01-25T07:24:39.648Z,22.48
2023-01-25T07:27:05.867Z,23.27
2023-01-25T07:29:32.266Z,27.63
2023-01-25T07:31:58.560Z,27.20
2023-01-25T07:34:25.054Z,28.77
2023-01-25T07:36:51.265Z,25.92
2023-01-25T07:39:17.556Z,27.05
2023-01-25T07:41:43.824Z,29.85
2023-01-25T07:44:10.231Z,29.80
2023-01-25T07:46:36.484Z,32.65
2023-01-25T07:49:02.822Z,34.63
2023-01-25T07:51:31.119Z,31.83
2023-01-25T07:53:59.609Z,29.23
2023-01-25T07:56:27.487Z,26.45
2023-01-25T07:58:55.054Z,28.70
2023-01-25T08:01:22.214Z,31.20
2023-01-25T08:03:49.292Z,28.40
2023-01-25T08:06:15.581Z,26.67
2023-01-25T08:08:46.285Z,26.45
2023-01-25T08:11:20.372Z,28.73
2023-01-25T08:13:47.342Z,29.00
2023-01-25T08:16:14.357Z,30.98
2023-01-25T08:21:06.848Z,38.03
2023-01-25T08:23:33.161Z,27.02
2023-01-25T08:26:03.208Z,36.13
2023-01-25T08:28:29.443Z,32.13
2023-01-25T08:30:57.525Z,32.97
2023-01-25T08:33:24.009Z,37.90
2023-01-25T08:35:59.268Z,34.30
2023-01-25T08:38:25.532Z,34.47
2023-01-25T08:40:51.955Z,34.78
2023-01-25T08:43:18.255Z,30.38
2023-01-25T08:45:44.848Z,32.47
2023-01-25T08:48:15.448Z,30.95
2023-01-25T08:50:47.974Z,33.90
2023-01-25T08:53:14.227Z,32.38
2023-01-25T08:55:42.869Z,34.33
2023-01-25T08:58:13.204Z,34.95
2023-01-25T09:00:40.175Z,31.92
2023-01-25T09:03:07.081Z,38.22
2023-01-25T09:05:33.878Z,33.55
2023-01-25T09:10:26.436Z,34.70
2023-01-25T09:12:52.760Z,36.58
2023-01-25T09:15:19.052Z,38.15
2023-01-25T09:17:45.293Z,40.00
2023-01-25T09:20:11.765Z,39.90
2023-01-25T09:22:39.004Z,37.15
2023-01-25T09:25:05.418Z,40.05
2023-01-25T09:27:31.677Z,37.08
2023-01-25T09:30:01.724Z,35.38
2023-01-25T09:32:29.450Z,36.15
2023-01-25T09:34:55.913Z,38.35
2023-01-25T09:37:22.186Z,27.55
2023-01-25T09:39:48.418Z,32.47
2023-01-25T09:42:33.468Z,30.13
2023-01-25T09:45:07.293Z,29.63
2023-01-25T09:47:57.711Z,25.73
2023-01-25T09:50:31.842Z,27.50
2023-01-25T09:53:16.823Z,27.90
2023-01-25T09:55:44.082Z,30.60
2023-01-25T09:58:15.650Z,29.30
2023-01-25T10:00:47.932Z,23.25
2023-01-25T10:03:22.964Z,25.65
2023-01-25T10:05:50.571Z,27.60
2023-01-25T10:08:16.856Z,27.98
2023-01-25T10:10:43.928Z,25.75
2023-01-25T10:13:18.882Z,28.38
2023-01-25T10:15:50.709Z,27.85
2023-01-25T10:18:21.748Z,31.45
2023-01-25T10:20:54.933Z,26.83
2023-01-25T10:23:24.090Z,24.73
2023-01-25T10:26:00.384Z,22.98
2023-01-25T10:28:34.504Z,24.13
2023-01-25T10:31:00.805Z,26.45
2023-01-25T10:33:28.304Z,21.88
2023-01-25T10:35:55.347Z,20.58
2023-01-25T10:38:25.865Z,25.20
2023-01-25T10:40:55.567Z,27.10
2023-01-25T10:43:22.318Z,24.95
2023-01-25T10:45:50.094Z,23.90
2023-01-25T10:48:20.960Z,23.08
2023-01-25T10:50:48.442Z,22.20
2023-01-25T10:53:26.672Z,28.55
2023-01-25T10:56:02.002Z,23.27
2023-01-25T10:58:35.919Z,26.50
2023-01-25T11:01:04.073Z,24.88
2023-01-25T11:03:38.081Z,26.48
2023-01-25T11:06:05.075Z,26.42
2023-01-25T11:08:31.310Z,27.95
2023-01-25T11:10:58.607Z,31.50
2023-01-25T11:13:26.267Z,29.25
2023-01-25T11:15:54.148Z,28.05
2023-01-25T11:18:22.329Z,24.02
2023-01-25T11:21:02.547Z,25.45
2023-01-25T11:23:28.911Z,27.52
2023-01-25T11:26:10.421Z,26.45
2023-01-25T11:28:36.876Z,27.05
2023-01-25T11:31:03.197Z,27.48
2023-01-25T11:33:30.622Z,25.83
2023-01-25T11:36:05.754Z,24.35
2023-01-25T11:38:32.136Z,27.02
2023-01-25T11:41:04.174Z,23.88
2023-01-25T11:43:33.273Z,27.92
2023-01-25T11:46:07.640Z,29.67
2023-01-25T11:48:53.558Z,25.08
2023-01-25T11:51:27.282Z,28.00
2023-01-25T11:53:53.499Z,32.05
2023-01-25T11:56:40.067Z,33.95
2023-01-25T11:59:13.616Z,31.17
2023-01-25T12:02:08.423Z,30.30
2023-01-25T12:04:41.177Z,29.75
2023-01-25T12:07:13.962Z,34.05
2023-01-25T12:09:43.183Z,30.55
2023-01-25T12:12:12.515Z,31.33
2023-01-25T12:14:38.731Z,32.03
2023-01-25T12:17:16.627Z,32.13
2023-01-25T12:19:57.598Z,28.92
2023-01-25T12:22:33.444Z,29.48
2023-01-25T12:24:59.662Z,33.20
2023-01-25T12:27:33.932Z,36.05
2023-01-25T12:30:02.547Z,32.58
2023-01-25T12:32:35.738Z,32.83
2023-01-25T12:35:11.327Z,33.10
2023-01-25T12:37:39.242Z,28.63
2023-01-25T12:40:18.291Z,39.50
2023-01-25T12:42:47.435Z,32.47
2023-01-25T12:45:17.163Z,30.10
2023-01-25T12:47:53.863Z,28.10
2023-01-25T12:50:20.144Z,27.15
2023-01-25T12:52:51.653Z,29.02
2023-01-25T12:55:18.457Z,23.20
2023-01-25T13:00:26.346Z,33.10
2023-01-25T13:02:52.588Z,29.10
2023-01-25T13:05:37.794Z,23.95
2023-01-25T13:08:30.042Z,22.67
2023-01-25T13:11:21.317Z,25.75
2023-01-25T13:13:47.758Z,25.38
2023-01-25T13:16:23.054Z,28.77
2023-01-25T13:18:49.342Z,24.33
2023-01-25T13:21:34.368Z,22.73
2023-01-25T13:24:11.030Z,28.60
2023-01-25T13:26:37.951Z,27.42
2023-01-25T13:31:51.891Z,20.50
2023-01-25T13:34:42.509Z,26.13
2023-01-25T13:37:25.768Z,21.38
2023-01-25T13:39:55.424Z,26.00
2023-01-25T13:42:25.872Z,25.73
2023-01-25T13:44:54.307Z,24.50
2023-01-25T13:47:22.147Z,27.13
2023-01-25T13:49:57.519Z,27.83
2023-01-25T13:52:24.760Z,26.83
2023-01-25T13:54:53.885Z,26.25
2023-01-25T13:57:21.443Z,31.75
2023-01-25T13:59:49.543Z,21.98
2023-01-25T14:02:19.641Z,26.38
2023-01-25T14:04:46.841Z,19.48
2023-01-25T14:07:16.032Z,22.20
2023-01-25T14:09:42.971Z,22.52
2023-01-25T14:12:11.025Z,25.90
2023-01-25T14:14:37.843Z,24.02
2023-01-25T14:19:31.226Z,27.67
2023-01-25T14:22:16.410Z,22.63
2023-01-25T14:24:42.685Z,26.38
2023-01-25T14:27:13.363Z,40.80
2023-01-25T14:32:16.951Z,38.17
2023-01-25T14:34:43.188Z,28.25
2023-01-25T14:37:20.824Z,32.88
2023-01-25T14:39:47.919Z,29.10
2023-01-25T14:42:15.422Z,27.20
2023-01-25T14:44:42.015Z,26.00
2023-01-25T14:47:27.130Z,33.42
2023-01-25T14:49:53.398Z,21.38
2023-01-25T14:52:20.583Z,24.48
2023-01-25T14:54:50.006Z,24.48
2023-01-25T14:57:25.196Z,24.38
2023-01-25T14:59:53.555Z,25.80
2023-01-25T15:02:24.515Z,28.58
2023-01-25T15:04:55.421Z,29.33
2023-01-25T15:07:40.376Z,28.63
2023-01-25T15:10:18.891Z,25.55
2023-01-25T15:13:13.744Z,26.90
2023-01-25T15:15:57.796Z,38.55
2023-01-25T15:18:43.026Z,26.85
2023-01-25T15:21:10.497Z,61.67
2023-01-25T15:23:36.738Z,31.92
2023-01-25T15:26:11.641Z,32.30
2023-01-25T15:28:37.876Z,29.58
2023-01-25T15:31:04.937Z,34.97
2023-01-25T15:33:32.522Z,34.45
2023-01-25T15:35:59.014Z,38.92
2023-01-25T15:38:25.636Z,32.55
2023-01-25T15:40:52.014Z,36.58
2023-01-25T15:43:19.340Z,32.15
2023-01-25T15:45:47.403Z,36.80
2023-01-25T15:48:14.946Z,33.53
2023-01-25T15:50:41.717Z,32.03
2023-01-25T15:55:34.399Z,37.45
2023-01-25T15:58:00.799Z,33.40
2023-01-25T16:00:27.048Z,33.35
2023-01-25T16:02:53.329Z,34.83
2023-01-25T16:05:19.602Z,31.52
2023-01-25T16:07:46.085Z,33.33
2023-01-25T16:10:19.629Z,41.08
2023-01-25T16:12:45.856Z,42.72
2023-01-25T16:15:12.121Z,38.63
2023-01-25T16:17:38.403Z,34.13
2023-01-25T16:20:04.858Z,36.13
2023-01-25T16:22:31.085Z,36.03
2023-01-25T16:24:57.317Z,42.28
2023-01-25T16:27:25.617Z,35.28
2023-01-25T16:29:52.321Z,45.15
2023-01-25T16:32:18.711Z,47.35
2023-01-25T16:34:45.001Z,42.80
2023-01-25T16:37:18.380Z,34.30
2023-01-25T16:39:44.744Z,39.78
2023-01-25T16:42:11.961Z,33.50
2023-01-25T16:44:38.517Z,32.95
2023-01-25T16:47:05.218Z,65.53
2023-01-25T16:49:31.482Z,60.08
2023-01-25T16:51:57.982Z,142.45
2023-01-25T16:54:25.027Z,35.83
2023-01-25T16:56:51.819Z,38.05
2023-01-25T17:01:45.470Z,40.15
2023-01-25T17:04:12.070Z,97.70
2023-01-25T17:06:40.251Z,74.03
2023-01-25T17:09:21.458Z,76.63
2023-01-25T17:11:48.706Z,106.07
2023-01-25T17:14:16.323Z,56.08
2023-01-25T17:16:42.821Z,42.15
2023-01-25T17:19:12.681Z,43.83
2023-01-25T17:21:38.923Z,42.40
2023-01-25T17:24:05.375Z,58.15
2023-01-25T17:26:32.240Z,48.53
2023-01-25T17:31:26.592Z,37.33
2023-01-25T17:33:53.350Z,39.90
2023-01-25T17:36:19.872Z,45.17
2023-01-25T17:38:46.208Z,47.22
2023-01-25T17:41:13.355Z,44.92
2023-01-25T17:43:40.004Z,55.65
2023-01-25T17:46:13.351Z,50.72
2023-01-25T17:48:39.986Z,45.40
2023-01-25T17:51:06.422Z,43.50
2023-01-25T17:53:32.719Z,41.67
2023-01-25T17:56:03.176Z,44.38
2023-01-25T17:58:30.237Z,46.33
2023-01-25T18:01:05.144Z,45.15
2023-01-25T18:03:38.981Z,46.88
2023-01-25T18:06:09.016Z,49.72
2023-01-25T18:08:40.208Z,46.75
2023-01-25T18:11:10.563Z,42.95
2023-01-25T18:13:40.489Z,43.50
2023-01-25T18:16:07.673Z,37.40
2023-01-25T18:18:33.980Z,47.65
2023-01-25T18:21:11.226Z,36.92
2023-01-25T18:23:38.272Z,43.90
2023-01-25T18:26:06.409Z,37.47
2023-01-25T18:28:32.886Z,43.75
2023-01-25T18:31:00.418Z,45.47
2023-01-25T18:33:26.726Z,31.95
2023-01-25T18:35:53.894Z,71.78
2023-01-25T18:38:20.174Z,48.30
2023-01-25T18:40:46.878Z,46.72
2023-01-25T18:43:16.982Z,40.60
2023-01-25T18:45:43.547Z,37.13
2023-01-25T18:48:13.379Z,39.10
2023-01-25T18:50:40.662Z,34.17
2023-01-25T18:53:08.674Z,40.05
2023-01-25T18:55:35.540Z,43.90
2023-01-25T19:00:31.461Z,37.50
2023-01-25T19:02:57.873Z,43.45
2023-01-25T19:05:24.265Z,41.53
2023-01-25T19:07:50.499Z,37.28
2023-01-25T19:10:17.371Z,37.53
2023-01-25T19:15:10.294Z,35.15
2023-01-25T19:17:36.740Z,39.42
2023-01-25T19:20:03.019Z,45.10
2023-01-25T19:22:29.306Z,34.75
2023-01-25T19:24:55.593Z,35.40
2023-01-25T19:27:22.004Z,36.33
2023-01-25T19:29:49.594Z,36.30
2023-01-25T19:32:15.891Z,36.13
2023-01-25T19:34:42.131Z,35.63
2023-01-25T19:37:08.357Z,34.88
2023-01-25T19:39:34.684Z,42.45
2023-01-25T19:42:00.970Z,42.33
2023-01-25T19:44:27.236Z,40.55
2023-01-25T19:46:53.845Z,48.95
2023-01-25T19:49:22.142Z,47.92
2023-01-25T19:51:52.830Z,42.00
2023-01-25T19:54:19.324Z,47.33
2023-01-25T19:56:46.964Z,44.30
2023-01-25T19:59:17.201Z,42.78
2023-01-25T20:01:46.571Z,32.92
2023-01-25T20:04:17.431Z,46.03
2023-01-25T20:06:43.747Z,38.33
2023-01-25T20:09:13.891Z,40.70
2023-01-25T20:11:40.845Z,37.55
2023-01-25T20:14:07.573Z,46.25
2023-01-25T20:16:34.541Z,50.03
2023-01-25T20:19:01.896Z,113.50
2023-01-25T20:21:28.853Z,78.90
2023-01-25T20:23:58.026Z,64.20
2023-01-25T20:26:29.405Z,46.35
2023-01-25T20:28:57.257Z,89.30
2023-01-25T20:31:25.154Z,117.30
2023-01-25T20:33:52.847Z,82.03
2023-01-25T20:36:19.336Z,51.90
2023-01-25T20:38:45.917Z,52.15
2023-01-25T20:41:14.113Z,50.88
2023-01-25T20:43:45.118Z,49.13
2023-01-25T20:46:11.357Z,54.05
2023-01-25T20:48:37.714Z,51.90
2023-01-25T20:51:04.877Z,51.67
2023-01-25T20:53:31.672Z,47.03
2023-01-25T20:58:24.311Z,40.15
2023-01-25T21:00:50.563Z,43.35
2023-01-25T21:03:16.847Z,46.50
2023-01-25T21:05:53.282Z,51.80
2023-01-25T21:08:19.825Z,48.20
2023-01-25T21:10:47.144Z,49.70
2023-01-25T21:13:13.387Z,46.83
2023-01-25T21:15:39.662Z,48.47
2023-01-25T21:18:05.892Z,49.13
2023-01-25T21:20:32.119Z,53.33
2023-01-25T21:22:58.341Z,52.53
2023-01-25T21:25:24.564Z,47.97
2023-01-25T21:27:50.817Z,49.83
2023-01-25T21:30:17.260Z,48.28
2023-01-25T21:32:43.583Z,52.17
2023-01-25T21:35:10.237Z,45.42
2023-01-25T21:40:02.835Z,37.85
2023-01-25T21:42:30.924Z,42.70
2023-01-25T21:45:17.165Z,44.63
2023-01-25T21:47:43.384Z,54.10
2023-01-25T21:50:28.584Z,47.92
2023-01-25T21:52:54.798Z,39.40
2023-01-25T21:55:21.030Z,46.13
2023-01-25T21:57:47.365Z,49.75
2023-01-25T22:00:15.927Z,47.67
2023-01-25T22:02:42.750Z,47.20
2023-01-25T22:07:35.159Z,45.47
2023-01-25T22:10:01.429Z,52.90
2023-01-25T22:12:27.701Z,41.72
2023-01-25T22:14:53.928Z,53.47
2023-01-25T22:17:22.438Z,56.60
2023-01-25T22:19:48.685Z,50.55
2023-01-25T22:22:14.934Z,56.83
2023-01-25T22:24:41.175Z,56.42
2023-01-25T22:27:13.181Z,58.00
2023-01-25T22:29:39.402Z,62.80
2023-01-25T22:32:05.667Z,53.08
2023-01-25T22:34:31.890Z,58.47
2023-01-25T22:36:58.159Z,56.58
2023-01-25T22:39:24.407Z,59.70
2023-01-25T22:41:50.661Z,52.92
2023-01-25T22:44:17.074Z,56.25
2023-01-25T22:46:43.303Z,55.33
2023-01-25T22:49:09.627Z,53.83
2023-01-25T22:51:35.888Z,50.95
2023-01-25T22:54:02.125Z,58.60
2023-01-25T22:56:31.585Z,56.53
2023-01-25T22:58:58.176Z,58.65
2023-01-25T23:01:25.758Z,57.85
2023-01-25T23:03:52.448Z,53.65
2023-01-25T23:06:22.844Z,53.38
2023-01-25T23:08:49.582Z,55.22
2023-01-25T23:14:02.713Z,58.40
2023-01-25T23:16:29.246Z,55.63
2023-01-25T23:18:55.701Z,49.78
2023-01-25T23:21:23.110Z,56.67
2023-01-25T23:23:49.689Z,55.70
2023-01-25T23:26:16.305Z,52.45
2023-01-25T23:28:42.589Z,53.72
2023-01-25T23:31:21.307Z,55.53
2023-01-25T23:33:55.369Z,54.25
2023-01-25T23:36:22.882Z,52.22
2023-01-25T23:38:49.680Z,54.38
2023-01-25T23:43:43.294Z,51.75
2023-01-25T23:46:10.046Z,50.88
2023-01-25T23:51:02.628Z,48.97
2023-01-25T23:53:30.039Z,59.28
2023-01-25T23:55:57.703Z,57.65
2023-01-25T23:58:24.624Z,57.97
